Time;durP1;ratioP1;P1;durP2;ratioP2;P2;SDS_P1;SDS_P2;PMS_P1;PMS_P2;Temp;Humidity;BMP_temperature;BMP_pressure;BME280_temperature;BME280_humidity;BME280_pressure;Samples;Min_cycle;Max_cycle;Signal;HPM_P1;HPM_P2
2022/11/01 00:01:00;;;;;;;15.20;7.93;;;;;;;14.26;84.98;100317.75;4987501;28;20417;-76
2022/11/01 00:03:26;;;;;;;12.27;7.93;;;;;;;14.28;84.77;100306.59;4979472;28;20400;-76
2022/11/01 00:05:51;;;;;;;14.00;7.90;;;;;;;14.30;84.70;100307.13;4973029;28;20408;-76
2022/11/01 00:08:16;;;;;;;16.20;8.80;;;;;;;14.31;84.66;100316.94;4985197;28;20870;-76
2022/11/01 00:10:41;;;;;;;11.25;7.90;;;;;;;14.29;84.84;100325.38;4982292;28;21283;-76
2022/11/01 00:13:07;;;;;;;13.47;8.37;;;;;;;14.28;84.79;100329.22;4976816;28;20770;-77
2022/11/01 00:15:32;;;;;;;13.07;8.70;;;;;;;14.31;84.74;100331.41;4984535;28;20487;-76
2022/11/01 00:17:57;;;;;;;14.07;8.17;;;;;;;14.31;84.57;100325.13;4984034;28;20398;-74
2022/11/01 00:20:23;;;;;;;16.03;9.13;;;;;;;14.35;84.53;100337.16;4976222;28;20420;-76
2022/11/01 00:22:48;;;;;;;13.65;9.05;;;;;;;14.35;84.53;100332.53;5006822;28;20434;-74
2022/11/01 00:25:13;;;;;;;13.03;8.50;;;;;;;14.32;84.85;100333.03;4984399;28;20451;-74
2022/11/01 00:27:38;;;;;;;12.27;8.83;;;;;;;14.32;84.63;100334.94;5016120;28;20440;-78
2022/11/01 00:30:04;;;;;;;13.50;9.52;;;;;;;14.34;84.72;100336.34;4981509;28;20455;-76
2022/11/01 00:32:30;;;;;;;14.95;9.23;;;;;;;14.31;85.07;100341.47;4978169;28;20403;-76
2022/11/01 00:34:55;;;;;;;15.03;9.80;;;;;;;14.27;85.30;100327.56;4989170;28;20479;-76
2022/11/01 00:37:20;;;;;;;13.70;10.00;;;;;;;14.24;85.60;100330.03;4978442;28;20863;-76
2022/11/01 00:39:45;;;;;;;21.23;10.27;;;;;;;14.24;85.67;100336.31;4983711;28;20418;-76
2022/11/01 00:42:11;;;;;;;17.53;10.37;;;;;;;14.25;85.50;100324.31;4979337;28;20423;-76
2022/11/01 00:44:36;;;;;;;18.17;11.00;;;;;;;14.24;85.80;100325.41;5011810;28;20402;-76
2022/11/01 00:47:01;;;;;;;14.40;10.23;;;;;;;14.25;85.73;100332.50;4987356;28;20397;-76
2022/11/01 00:49:26;;;;;;;19.10;9.93;;;;;;;14.20;85.98;100324.28;4981580;28;20819;-76
2022/11/01 00:51:52;;;;;;;17.53;10.23;;;;;;;14.26;85.92;100319.69;5009334;28;20451;-76
2022/11/01 00:54:17;;;;;;;14.47;10.03;;;;;;;14.31;85.78;100312.31;4980191;28;20419;-76
2022/11/01 00:56:42;;;;;;;21.43;10.30;;;;;;;14.26;85.58;100304.13;4982647;28;20401;-76
2022/11/01 00:59:07;;;;;;;13.10;9.93;;;;;;;14.25;85.80;100315.31;4977483;28;20420;-76
2022/11/01 01:01:33;;;;;;;17.63;10.13;;;;;;;14.33;85.90;100314.75;5021343;28;20402;-76
2022/11/01 01:03:58;;;;;;;15.57;9.47;;;;;;;14.37;85.29;100322.16;4978082;28;20412;-76
2022/11/01 01:06:24;;;;;;;12.80;9.17;;;;;;;14.40;85.38;100304.44;4981429;28;20397;-76
2022/11/01 01:08:49;;;;;;;13.10;8.90;;;;;;;14.37;85.22;100305.81;4987758;28;21338;-76
2022/11/01 01:11:15;;;;;;;12.10;8.50;;;;;;;14.39;84.80;100306.34;5006276;28;20416;-76
2022/11/01 01:13:40;;;;;;;13.47;8.83;;;;;;;14.38;85.11;100309.34;5007124;28;20404;-76
2022/11/01 01:16:10;;;;;;;20.13;8.47;;;;;;;14.43;84.98;100298.44;5004089;28;20405;-76
2022/11/01 01:18:36;;;;;;;15.02;9.13;;;;;;;14.42;84.98;100294.09;4990750;28;20420;-76
2022/11/01 01:21:02;;;;;;;9.77;7.97;;;;;;;14.39;85.34;100289.19;5007594;28;20389;-76
2022/11/01 01:23:28;;;;;;;12.30;8.00;;;;;;;14.41;85.20;100278.81;5006039;28;20486;-76
2022/11/01 01:25:53;;;;;;;14.23;8.30;;;;;;;14.42;84.93;100286.69;4981150;28;20420;-76
2022/11/01 01:28:18;;;;;;;13.40;8.40;;;;;;;14.42;85.03;100300.31;4990668;28;20396;-77
2022/11/01 01:30:44;;;;;;;11.33;8.03;;;;;;;14.42;84.93;100302.25;5007547;28;20404;-76
2022/11/01 01:33:09;;;;;;;12.97;8.70;;;;;;;14.40;85.19;100301.69;5004959;28;20479;-77
2022/11/01 01:35:34;;;;;;;16.27;9.10;;;;;;;14.41;85.17;100298.72;4988307;28;20419;-76
2022/11/01 01:38:00;;;;;;;12.43;7.97;;;;;;;14.42;85.22;100296.81;4999325;28;20485;-77
2022/11/01 01:40:25;;;;;;;15.83;8.23;;;;;;;14.41;85.12;100300.63;4994991;28;20408;-76
2022/11/01 01:42:50;;;;;;;12.17;8.47;;;;;;;14.43;85.08;100298.44;5003628;28;20435;-76
2022/11/01 01:45:22;;;;;;;18.47;8.13;;;;;;;14.44;84.95;100316.44;4984387;28;20467;-76
2022/11/01 01:47:51;;;;;;;10.25;7.65;;;;;;;14.42;85.09;100310.44;5024442;28;20883;-76
2022/11/01 01:50:32;;;;;;;12.50;7.40;;;;;;;14.44;85.17;100302.78;5006527;28;20907;-76
2022/11/01 01:53:03;;;;;;;10.90;7.35;;;;;;;14.48;84.95;100287.53;5005619;28;20421;-77
2022/11/01 01:55:44;;;;;;;12.68;8.05;;;;;;;14.51;84.81;100287.81;4999197;28;20489;-76
2022/11/01 01:58:14;;;;;;;15.75;7.30;;;;;;;14.47;85.49;100283.97;5006812;28;20393;-77
2022/11/01 02:00:42;;;;;;;11.70;7.45;;;;;;;14.47;85.75;100280.44;5006996;28;20385;-77
2022/11/01 02:03:07;;;;;;;10.10;7.15;;;;;;;14.48;85.62;100284.81;4987275;28;20467;-77
2022/11/01 02:05:42;;;;;;;10.30;6.93;;;;;;;14.45;86.09;100279.91;5026301;28;20414;-76
2022/11/01 02:08:08;;;;;;;14.10;7.32;;;;;;;14.48;85.83;100285.63;4991705;28;20443;-76
2022/11/01 02:10:34;;;;;;;13.82;8.05;;;;;;;14.50;85.67;100301.69;5006663;28;20435;-76
2022/11/01 02:12:59;;;;;;;14.10;7.50;;;;;;;14.49;85.85;100325.41;5003386;28;20453;-76
2022/11/01 02:15:36;;;;;;;14.27;7.80;;;;;;;14.49;86.05;100336.31;4998826;28;20415;-77
2022/11/01 02:18:11;;;;;;;14.40;8.00;;;;;;;14.46;85.91;100334.13;4984214;28;20816;-76
2022/11/01 02:20:38;;;;;;;18.40;8.93;;;;;;;14.44;86.46;100344.50;5032054;28;20413;-76
2022/11/01 02:23:28;;;;;;;14.32;8.80;;;;;;;14.47;86.75;100334.97;5002592;28;20403;-76
2022/11/01 02:26:27;;;;;;;16.08;8.60;;;;;;;14.47;86.55;100348.59;4988837;28;20424;-76
2022/11/01 02:29:11;;;;;;;12.15;7.70;;;;;;;14.47;86.76;100343.16;4996425;28;20913;-76
2022/11/01 02:32:06;;;;;;;24.38;8.30;;;;;;;14.47;87.00;100352.16;4984821;28;20910;-76
2022/11/01 02:34:47;;;;;;;16.95;8.68;;;;;;;14.51;86.78;100330.59;5013336;28;20777;-76
2022/11/01 02:37:27;;;;;;;11.85;8.35;;;;;;;14.54;86.89;100324.59;5002516;28;20402;-77
2022/11/01 02:39:59;;;;;;;12.55;8.18;;;;;;;14.55;86.75;100323.53;5004922;28;20393;-76
2022/11/01 02:42:29;;;;;;;15.45;7.80;;;;;;;14.56;86.92;100325.13;4991577;28;20424;-76
2022/11/01 02:45:00;;;;;;;12.65;8.25;;;;;;;14.57;87.10;100317.78;4997146;28;20393;-76
2022/11/01 02:47:28;;;;;;;12.03;8.43;;;;;;;14.60;86.81;100311.78;4989884;28;20409;-76
2022/11/01 02:50:00;;;;;;;16.45;9.25;;;;;;;14.63;86.73;100322.94;4999857;28;20759;-76
2022/11/01 02:52:29;;;;;;;12.88;9.68;;;;;;;14.62;86.80;100325.97;4989146;28;20437;-76
2022/11/01 02:55:00;;;;;;;14.23;9.10;;;;;;;14.65;86.88;100323.50;4998366;28;20495;-76
2022/11/01 02:57:35;;;;;;;14.00;8.90;;;;;;;14.66;86.63;100318.84;5005794;28;20476;-76
2022/11/01 03:00:18;;;;;;;25.67;11.93;;;;;;;14.67;86.62;100329.50;5002229;28;20392;-76
2022/11/01 03:02:44;;;;;;;18.33;9.60;;;;;;;14.69;86.70;100335.47;4992732;28;20421;-76
2022/11/01 03:05:15;;;;;;;15.43;8.77;;;;;;;14.72;86.77;100334.13;5005692;28;20443;-76
2022/11/01 03:07:45;;;;;;;12.00;8.32;;;;;;;14.72;86.84;100326.75;5004030;28;20908;-76
2022/11/01 03:10:11;;;;;;;13.90;8.55;;;;;;;14.73;86.70;100333.03;5023197;28;20425;-76
2022/11/01 03:12:49;;;;;;;15.77;8.82;;;;;;;14.74;86.77;100334.66;4991972;28;20420;-76
2022/11/01 03:15:24;;;;;;;14.30;8.80;;;;;;;14.75;86.52;100337.09;4994510;28;20546;-77
2022/11/01 03:17:59;;;;;;;13.77;8.47;;;;;;;14.77;86.59;100334.94;4993734;28;20452;-76
2022/11/01 03:20:46;;;;;;;9.87;7.87;;;;;;;14.77;86.44;100342.31;5002397;28;20445;-76
2022/11/01 03:23:15;;;;;;;19.23;8.82;;;;;;;14.76;86.16;100344.22;4998678;28;20495;-76
2022/11/01 03:25:46;;;;;;;15.82;8.27;;;;;;;14.75;86.82;100339.84;5002014;28;20415;-77
2022/11/01 03:28:32;;;;;;;15.57;8.80;;;;;;;14.71;86.90;100349.69;5000294;28;20769;-76
2022/11/01 03:31:04;;;;;;;11.45;8.10;;;;;;;14.71;86.97;100352.41;5003780;28;20424;-76
2022/11/01 03:33:31;;;;;;;12.98;8.60;;;;;;;14.69;86.96;100359.22;4994440;28;20409;-77
2022/11/01 03:36:02;;;;;;;13.90;8.82;;;;;;;14.74;86.91;100372.84;5001519;28;20418;-76
2022/11/01 03:38:33;;;;;;;14.40;10.02;;;;;;;14.70;87.17;100380.78;5004772;28;20875;-76
2022/11/01 03:41:04;;;;;;;14.63;9.27;;;;;;;14.72;87.03;100388.69;5005165;28;20483;-76
2022/11/01 03:43:31;;;;;;;24.40;9.32;;;;;;;14.69;87.40;100391.94;4995353;28;20420;-76
2022/11/01 03:45:57;;;;;;;20.98;10.15;;;;;;;14.61;87.43;100404.25;4985357;28;20408;-76
2022/11/01 03:48:22;;;;;;;13.47;8.90;;;;;;;14.58;87.64;100396.59;5004834;28;20868;-76
2022/11/01 03:50:49;;;;;;;14.67;9.90;;;;;;;14.61;87.56;100400.69;5003734;28;20446;-76
2022/11/01 03:53:15;;;;;;;17.45;9.40;;;;;;;14.61;87.54;100398.78;4997934;28;20874;-76
2022/11/01 03:55:40;;;;;;;13.30;8.93;;;;;;;14.60;87.67;100402.59;5000102;28;20413;-76
2022/11/01 03:58:06;;;;;;;17.43;9.67;;;;;;;14.61;87.67;100417.88;5004419;28;20488;-76
2022/11/01 04:00:41;;;;;;;16.52;8.90;;;;;;;14.65;87.62;100437.25;4997004;28;20793;-76
2022/11/01 04:03:07;;;;;;;16.52;8.98;;;;;;;14.63;87.82;100448.41;4998027;28;20419;-76
2022/11/01 04:05:34;;;;;;;17.98;10.20;;;;;;;14.63;87.86;100445.69;4987368;28;20428;-76
2022/11/01 04:07:59;;;;;;;20.67;10.60;;;;;;;14.55;88.34;100462.59;4984776;28;20401;-76
2022/11/01 04:10:26;;;;;;;16.07;9.67;;;;;;;14.51;88.79;100454.13;5004863;28;20389;-76
2022/11/01 04:12:52;;;;;;;15.52;9.77;;;;;;;14.54;89.00;100448.13;4989520;28;20927;-76
2022/11/01 04:20:59;;;;;;;17.55;10.23;;;;;;;14.58;88.90;100426.59;4992330;28;20418;-76
2022/11/01 04:23:25;;;;;;;19.42;9.65;;;;;;;14.53;89.27;100424.69;4982992;28;20440;-75
2022/11/01 04:25:50;;;;;;;17.02;9.55;;;;;;;14.57;89.40;100426.84;4984642;28;20408;-76
2022/11/01 04:28:16;;;;;;;15.47;9.13;;;;;;;14.55;89.48;100424.41;5004230;28;20400;-76
2022/11/01 04:30:42;;;;;;;14.73;8.80;;;;;;;14.59;89.50;100425.50;5001062;28;20822;-76
2022/11/01 04:33:08;;;;;;;14.57;8.55;;;;;;;14.61;89.46;100426.06;5001272;28;20434;-75
2022/11/01 04:35:35;;;;;;;13.98;7.97;;;;;;;14.66;89.23;100434.22;4995823;28;21003;-75
2022/11/01 04:38:00;;;;;;;14.45;7.95;;;;;;;14.68;89.51;100442.97;4996990;28;20831;-75
2022/11/01 04:40:26;;;;;;;15.37;8.23;;;;;;;14.67;89.53;100435.06;4999185;28;20494;-76
2022/11/01 04:42:52;;;;;;;14.07;8.40;;;;;;;14.68;89.63;100448.44;4996778;28;20426;-76
2022/11/01 04:45:17;;;;;;;13.52;7.90;;;;;;;14.70;89.69;100450.88;5004042;28;20392;-76
2022/11/01 04:47:50;;;;;;;18.50;7.30;;;;;;;14.73;89.58;100455.78;5004302;28;20752;-75
2022/11/01 04:50:17;;;;;;;13.45;6.97;;;;;;;14.71;89.70;100444.34;5001596;28;20452;-76
2022/11/01 04:52:42;;;;;;;10.68;6.45;;;;;;;14.76;89.72;100444.31;4986396;28;20418;-75
2022/11/01 04:55:07;;;;;;;10.38;6.50;;;;;;;14.79;89.74;100438.31;4985644;28;20760;-76
2022/11/01 04:57:43;;;;;;;13.17;6.00;;;;;;;14.81;89.50;100436.97;4980165;28;20501;-75
2022/11/01 05:00:10;;;;;;;16.43;6.57;;;;;;;14.81;89.82;100444.34;4983020;28;20419;-75
2022/11/01 05:02:38;;;;;;;14.57;6.72;;;;;;;14.83;89.76;100447.59;4988491;28;20819;-75
2022/11/01 05:05:08;;;;;;;8.90;6.15;;;;;;;14.85;89.46;100431.78;4988535;28;20405;-75
2022/11/01 05:07:34;;;;;;;10.88;5.70;;;;;;;14.87;89.51;100437.78;5004133;28;20393;-75
2022/11/01 05:10:00;;;;;;;8.73;5.37;;;;;;;14.88;89.60;100444.88;4999721;28;20848;-75
2022/11/01 05:12:25;;;;;;;10.87;5.83;;;;;;;14.89;89.71;100447.31;4985536;28;20410;-75
2022/11/01 05:14:51;;;;;;;9.80;5.37;;;;;;;14.91;89.90;100445.16;4997291;28;20480;-75
2022/11/01 05:17:16;;;;;;;10.63;4.90;;;;;;;14.95;89.62;100437.25;5006775;28;20481;-75
2022/11/01 05:19:41;;;;;;;8.23;5.07;;;;;;;14.96;89.60;100433.41;5000440;28;20438;-75
2022/11/01 05:22:07;;;;;;;10.03;4.40;;;;;;;14.99;89.59;100444.59;5030817;28;20398;-75
2022/11/01 05:24:32;;;;;;;9.30;4.70;;;;;;;14.98;89.68;100450.34;5006521;28;20406;-75
2022/11/01 05:26:59;;;;;;;10.33;4.63;;;;;;;14.98;89.50;100455.78;4995614;28;20428;-75
2022/11/01 05:29:24;;;;;;;8.30;4.47;;;;;;;14.96;89.70;100453.31;4992568;28;20420;-75
2022/11/01 05:31:50;;;;;;;8.40;4.30;;;;;;;14.98;89.75;100453.06;4998094;28;20483;-75
2022/11/01 05:34:15;;;;;;;8.88;4.93;;;;;;;14.99;89.75;100460.16;4998369;28;20434;-75
2022/11/01 05:36:40;;;;;;;7.40;3.60;;;;;;;15.02;89.90;100462.31;4993218;28;20404;-75
2022/11/01 05:39:06;;;;;;;6.30;3.77;;;;;;;15.02;89.79;100459.59;5002182;28;20479;-75
2022/11/01 05:41:31;;;;;;;5.27;3.50;;;;;;;15.01;89.81;100461.53;4979340;28;20427;-75
2022/11/01 05:43:56;;;;;;;6.13;3.07;;;;;;;15.01;89.96;100456.06;4986034;28;20433;-76
2022/11/01 05:46:22;;;;;;;5.97;3.50;;;;;;;15.05;89.91;100456.31;4997336;28;21010;-75
2022/11/01 05:48:47;;;;;;;6.13;3.40;;;;;;;15.03;90.13;100467.53;5005091;28;20455;-75
2022/11/01 05:51:12;;;;;;;6.80;2.40;;;;;;;15.10;90.13;100467.25;4988778;28;20470;-75
2022/11/01 05:53:37;;;;;;;6.23;2.00;;;;;;;15.15;89.83;100469.16;5003469;28;20405;-75
2022/11/01 05:56:03;;;;;;;6.17;2.10;;;;;;;15.07;90.36;100467.78;5006391;28;20389;-76
2022/11/01 05:58:28;;;;;;;3.40;2.00;;;;;;;15.11;90.43;100470.78;4993890;28;20426;-76
2022/11/01 06:01:02;;;;;;;2.50;1.53;;;;;;;15.20;90.37;100480.88;5001921;28;20760;-75
2022/11/01 06:03:27;;;;;;;4.20;1.73;;;;;;;15.21;90.47;100463.41;4998085;28;20396;-75
2022/11/01 06:05:52;;;;;;;3.57;1.60;;;;;;;15.25;90.40;100474.59;5005448;28;20412;-75
2022/11/01 06:08:18;;;;;;;3.30;1.67;;;;;;;15.27;90.30;100467.78;5001389;28;20381;-75
2022/11/01 06:10:43;;;;;;;2.93;1.63;;;;;;;15.28;90.65;100474.06;5005597;28;20388;-75
2022/11/01 06:13:09;;;;;;;2.37;1.30;;;;;;;15.29;90.86;100484.69;4985792;28;20410;-75
2022/11/01 06:15:34;;;;;;;1.30;1.30;;;;;;;15.35;90.67;100483.56;5001290;28;20396;-75
2022/11/01 06:17:59;;;;;;;3.67;1.70;;;;;;;15.41;90.60;100487.16;4998545;28;20820;-75
2022/11/01 06:20:26;;;;;;;2.67;1.37;;;;;;;15.42;90.51;100483.28;5006499;28;20454;-76
2022/11/01 06:22:52;;;;;;;4.40;1.52;;;;;;;15.44;90.73;100487.38;5002887;28;20427;-75
2022/11/01 06:25:17;;;;;;;1.67;1.48;;;;;;;15.48;90.66;100493.13;4992632;28;20443;-75
2022/11/01 06:27:42;;;;;;;1.50;1.40;;;;;;;15.47;90.88;100495.06;4983687;28;20449;-75
2022/11/01 06:30:08;;;;;;;2.45;1.23;;;;;;;15.51;90.76;100498.88;4991188;28;20424;-75
2022/11/01 06:32:34;;;;;;;1.95;1.48;;;;;;;15.53;90.57;100507.63;4985635;28;20438;-75
2022/11/01 06:34:59;;;;;;;1.37;1.20;;;;;;;15.54;90.53;100506.50;4987788;28;20431;-75
2022/11/01 06:37:24;;;;;;;1.77;1.35;;;;;;;15.56;90.31;100526.19;4994277;28;20393;-75
2022/11/01 06:39:50;;;;;;;2.53;1.37;;;;;;;15.54;90.76;100525.63;4994898;28;20476;-75
2022/11/01 06:42:15;;;;;;;3.43;1.87;;;;;;;15.56;90.56;100534.38;4989048;28;20419;-75
2022/11/01 06:44:40;;;;;;;4.30;1.70;;;;;;;15.56;90.67;100536.28;4996604;28;20799;-74
2022/11/01 06:47:06;;;;;;;1.40;1.20;;;;;;;15.57;90.60;100543.41;5034548;28;20405;-75
2022/11/01 06:49:31;;;;;;;1.88;1.33;;;;;;;15.58;90.74;100548.56;5006037;28;20500;-74
2022/11/01 06:51:56;;;;;;;2.63;1.53;;;;;;;15.59;90.52;100546.66;4993519;28;20439;-74
2022/11/01 06:54:22;;;;;;;3.27;1.30;;;;;;;15.63;90.37;100555.97;4992532;28;20540;-74
2022/11/01 06:56:47;;;;;;;2.97;1.17;;;;;;;15.58;90.49;100556.78;5003205;28;20438;-74
2022/11/01 06:59:15;;;;;;;1.33;1.23;;;;;;;15.52;90.92;100565.25;5005365;28;20389;-74
2022/11/01 07:01:40;;;;;;;1.80;1.45;;;;;;;15.52;90.79;100573.44;4995370;28;20495;-74
2022/11/01 07:04:06;;;;;;;3.00;1.73;;;;;;;15.52;90.96;100577.00;4990857;28;20402;-75
2022/11/01 07:06:31;;;;;;;2.73;1.50;;;;;;;15.54;90.82;100583.00;4999558;28;20838;-75
2022/11/01 07:09:00;;;;;;;1.47;1.10;;;;;;;15.55;91.03;100583.81;4992589;28;20490;-75
2022/11/01 07:11:25;;;;;;;1.00;1.00;;;;;;;15.58;90.89;100586.00;4990861;28;20461;-79
2022/11/01 07:13:51;;;;;;;2.13;1.38;;;;;;;15.60;90.86;100594.75;5032502;28;20395;-75
2022/11/01 07:16:17;;;;;;;1.07;1.07;;;;;;;15.60;91.00;100597.50;4976381;28;20432;-74
2022/11/01 07:18:43;;;;;;;1.57;1.00;;;;;;;15.64;90.94;100601.31;5001350;28;20400;-75
2022/11/01 07:21:09;;;;;;;3.58;0.90;;;;;;;15.68;90.69;100607.03;4988196;28;20407;-75
2022/11/01 07:23:35;;;;;;;1.05;1.05;;;;;;;15.68;90.75;100616.03;4992658;28;20404;-75
2022/11/01 07:26:01;;;;;;;2.50;1.10;;;;;;;15.73;90.39;100610.59;4993473;28;20439;-75
2022/11/01 07:28:26;;;;;;;0.87;0.87;;;;;;;15.79;90.33;100608.66;4991079;28;20415;-74
2022/11/01 07:30:53;;;;;;;1.67;1.00;;;;;;;15.78;90.27;100604.28;4991391;28;20416;-75
2022/11/01 07:33:19;;;;;;;1.13;1.02;;;;;;;15.81;90.24;100617.38;5004054;28;20384;-75
2022/11/01 07:35:45;;;;;;;1.27;0.88;;;;;;;15.83;90.22;100615.22;5032079;28;20444;-75
2022/11/01 07:38:11;;;;;;;1.10;1.10;;;;;;;15.86;90.17;100620.13;4994282;28;20419;-75
2022/11/01 07:40:37;;;;;;;2.80;1.10;;;;;;;15.86;90.29;100618.22;5004132;28;20748;-75
2022/11/01 07:43:03;;;;;;;1.33;0.93;;;;;;;15.90;90.23;100621.22;5004117;28;20479;-75
2022/11/01 07:45:30;;;;;;;0.80;0.80;;;;;;;15.98;90.25;100626.09;4993759;28;20414;-75
2022/11/01 07:48:09;;;;;;;1.20;0.90;;;;;;;16.02;89.85;100619.81;4982879;28;20403;-74
2022/11/01 07:50:34;;;;;;;0.80;0.80;;;;;;;16.05;89.73;100627.47;4993225;28;20418;-75
2022/11/01 07:53:02;;;;;;;1.20;0.80;;;;;;;16.08;89.43;100634.28;4985234;28;20419;-75
2022/11/01 07:55:28;;;;;;;1.00;0.85;;;;;;;16.14;89.37;100633.19;4995579;28;20794;-75
2022/11/01 07:57:54;;;;;;;1.07;0.93;;;;;;;16.20;89.11;100645.75;4988400;28;20404;-75
2022/11/01 08:00:19;;;;;;;4.03;1.10;;;;;;;16.28;88.98;100652.56;4994105;28;20497;-75
2022/11/01 08:02:45;;;;;;;1.08;0.98;;;;;;;16.26;88.99;100652.03;4991060;28;20491;-74
2022/11/01 08:05:11;;;;;;;1.27;0.70;;;;;;;16.30;88.75;100648.44;4989200;28;20441;-75
2022/11/01 08:07:40;;;;;;;1.50;0.60;;;;;;;16.34;88.55;100655.00;4985037;28;20431;-75
2022/11/01 08:10:07;;;;;;;1.02;0.90;;;;;;;16.31;88.40;100661.03;4992704;28;20422;-76
2022/11/01 08:12:33;;;;;;;1.67;0.63;;;;;;;16.26;88.75;100665.72;5010910;28;20404;-75
2022/11/01 08:14:58;;;;;;;2.70;0.80;;;;;;;16.30;88.56;100661.31;5007295;28;20401;-75
2022/11/01 08:17:24;;;;;;;0.80;0.80;;;;;;;16.34;88.31;100668.69;5019695;28;20402;-75
2022/11/01 08:19:49;;;;;;;1.80;0.63;;;;;;;16.34;88.04;100660.47;5021659;28;20753;-75
2022/11/01 08:22:14;;;;;;;0.68;0.68;;;;;;;16.39;87.93;100660.47;4990767;28;20430;-75
2022/11/01 08:24:40;;;;;;;1.40;0.60;;;;;;;16.44;87.83;100656.88;4996678;28;20838;-75
2022/11/01 08:27:05;;;;;;;1.60;0.73;;;;;;;16.49;87.38;100668.66;5012509;28;20411;-75
2022/11/01 08:29:30;;;;;;;1.07;0.60;;;;;;;16.53;87.01;100664.25;5019595;28;20436;-75
2022/11/01 08:31:56;;;;;;;1.70;0.80;;;;;;;16.60;86.66;100666.72;5011168;28;20478;-75
2022/11/01 08:34:21;;;;;;;1.63;1.10;;;;;;;16.64;86.56;100672.44;5008783;28;20425;-75
2022/11/01 08:36:46;;;;;;;1.43;0.70;;;;;;;16.66;86.29;100671.09;5018700;28;20499;-75
2022/11/01 08:39:12;;;;;;;1.87;0.77;;;;;;;16.72;86.09;100672.69;5013900;28;20412;-75
2022/11/01 08:41:37;;;;;;;0.80;0.60;;;;;;;16.70;85.91;100661.19;5014108;28;20425;-75
2022/11/01 08:44:06;;;;;;;1.30;1.20;;;;;;;16.72;85.96;100677.34;5005993;28;20438;-75
2022/11/01 08:46:31;;;;;;;2.00;1.00;;;;;;;16.76;85.73;100683.91;5010947;28;20491;-75
2022/11/01 08:48:59;;;;;;;1.13;1.00;;;;;;;16.75;85.71;100676.78;5004148;28;20964;-75
2022/11/01 08:51:26;;;;;;;2.85;0.90;;;;;;;16.77;85.52;100675.41;5012642;28;20484;-75
2022/11/01 08:53:55;;;;;;;4.00;0.80;;;;;;;16.81;85.18;100684.69;5015397;28;20396;-76
2022/11/01 08:56:23;;;;;;;3.03;0.80;;;;;;;16.73;85.44;100685.25;5010163;28;20409;-76
2022/11/01 08:58:48;;;;;;;1.55;0.90;;;;;;;16.74;85.64;100678.69;5015877;28;20393;-75
2022/11/01 09:01:13;;;;;;;1.97;0.87;;;;;;;16.79;85.45;100684.16;5006868;28;20757;-75
2022/11/01 09:03:39;;;;;;;0.70;0.60;;;;;;;16.84;85.55;100680.56;5009367;28;20889;-76
2022/11/01 09:06:04;;;;;;;1.93;0.87;;;;;;;16.99;84.80;100686.00;5012655;28;20454;-75
2022/11/01 09:08:30;;;;;;;1.30;0.90;;;;;;;17.07;84.67;100688.13;5011535;28;20887;-75
2022/11/01 09:10:58;;;;;;;0.83;0.83;;;;;;;17.11;84.38;100686.47;5017922;28;20419;-76
2022/11/01 09:13:23;;;;;;;2.38;0.80;;;;;;;17.13;84.48;100689.72;5023408;28;20387;-77
2022/11/01 09:15:49;;;;;;;1.63;1.07;;;;;;;17.17;84.15;100701.75;5012967;28;20958;-75
2022/11/01 09:18:14;;;;;;;1.63;1.10;;;;;;;17.30;83.89;100708.53;5012483;28;20961;-76
2022/11/01 09:20:39;;;;;;;1.30;0.70;;;;;;;17.42;83.65;100709.81;5011084;28;20403;-75
2022/11/01 09:23:05;;;;;;;2.00;0.97;;;;;;;17.66;82.88;100706.41;5018363;28;20404;-76
2022/11/01 09:25:30;;;;;;;1.52;1.10;;;;;;;17.72;82.29;100708.00;5011561;28;20808;-77
2022/11/01 09:27:56;;;;;;;3.03;1.23;;;;;;;17.63;82.19;100714.09;5004394;28;20736;-76
2022/11/01 09:30:22;;;;;;;1.70;1.13;;;;;;;17.54;82.79;100710.31;5008482;28;20425;-77
2022/11/01 09:32:48;;;;;;;4.07;1.10;;;;;;;17.49;82.63;100713.06;5000432;28;21218;-77
2022/11/01 09:35:13;;;;;;;2.10;0.90;;;;;;;17.65;82.79;100719.28;4996885;28;20415;-76
2022/11/01 09:37:38;;;;;;;1.00;0.80;;;;;;;17.84;81.96;100717.50;4993217;28;20430;-77
2022/11/01 09:40:05;;;;;;;0.90;0.85;;;;;;;17.93;81.48;100723.19;5000631;28;20429;-76
2022/11/01 09:42:38;;;;;;;2.50;1.42;;;;;;;17.80;81.66;100732.06;5002457;28;20434;-76
2022/11/01 09:45:22;;;;;;;4.50;2.23;;;;;;;17.46;81.45;100741.03;4995939;28;20403;-76
2022/11/01 09:47:56;;;;;;;3.07;1.50;;;;;;;17.15;81.18;100734.09;4998705;28;20410;-76
2022/11/01 09:50:25;;;;;;;1.55;1.02;;;;;;;16.96;80.87;100742.09;5003823;28;20422;-77
2022/11/01 09:52:53;;;;;;;8.20;1.10;;;;;;;16.87;80.85;100732.84;5014041;28;20983;-77
2022/11/01 09:55:38;;;;;;;6.32;1.85;;;;;;;16.86;80.22;100749.56;4997019;28;20398;-76
2022/11/01 09:58:15;;;;;;;4.97;1.48;;;;;;;16.86;79.76;100755.81;4998856;28;20419;-76
2022/11/01 10:00:54;;;;;;;4.30;1.27;;;;;;;16.89;78.18;100751.75;4998335;28;20887;-76
2022/11/01 10:03:47;;;;;;;3.72;1.25;;;;;;;17.12;76.76;100759.31;4997850;28;20411;-76
2022/11/01 10:06:20;;;;;;;3.03;1.38;;;;;;;16.86;77.57;100760.50;4997297;28;20435;-76
2022/11/01 10:09:05;;;;;;;4.10;1.42;;;;;;;16.85;77.24;100758.88;4999360;28;20431;-76
2022/11/01 10:12:12;;;;;;;2.75;0.77;;;;;;;17.78;74.17;100756.22;5007540;28;20924;-77
2022/11/01 10:14:59;;;;;;;5.70;1.00;;;;;;;19.53;67.69;100752.69;4998795;28;20413;-77
2022/11/01 10:17:48;;;;;;;3.43;0.90;;;;;;;19.37;66.45;100761.41;4997696;28;20426;-75
2022/11/01 10:20:14;;;;;;;4.70;1.05;;;;;;;18.69;68.00;100769.94;4997258;28;20409;-76
2022/11/01 10:22:42;;;;;;;3.67;1.02;;;;;;;18.31;68.80;100768.13;4996925;28;20411;-75
2022/11/01 10:25:28;;;;;;;4.15;1.05;;;;;;;17.96;69.71;100764.56;4997147;28;20454;-75
2022/11/01 10:28:21;;;;;;;2.80;1.00;;;;;;;17.78;70.28;100780.88;4997305;28;20432;-76
2022/11/01 10:30:52;;;;;;;3.20;0.77;;;;;;;17.71;70.74;100774.91;5005307;28;20417;-76
2022/11/01 10:33:33;;;;;;;6.60;1.25;;;;;;;17.59;70.33;100776.06;4996227;28;20446;-76
2022/11/01 10:36:02;;;;;;;3.93;0.83;;;;;;;17.49;70.54;100781.56;4997440;28;20457;-76
2022/11/01 10:38:45;;;;;;;4.40;1.10;;;;;;;17.44;70.51;100778.88;4999178;28;20414;-76
2022/11/01 10:41:22;;;;;;;1.85;0.63;;;;;;;17.38;70.68;100773.69;5004798;28;20408;-76
2022/11/01 10:44:14;;;;;;;5.50;0.93;;;;;;;17.31;70.02;100787.69;5010703;28;20487;-75
2022/11/01 10:46:46;;;;;;;4.80;0.98;;;;;;;17.21;69.93;100779.53;5006780;28;20410;-76
2022/11/01 10:49:23;;;;;;;3.88;0.98;;;;;;;17.18;69.97;100776.53;5019399;28;20450;-76
2022/11/01 10:51:52;;;;;;;5.60;1.38;;;;;;;17.20;70.29;100780.63;5045788;28;20446;-76
2022/11/01 10:54:24;;;;;;;2.30;1.05;;;;;;;17.09;70.02;100773.56;5007136;28;20408;-76
2022/11/01 10:56:53;;;;;;;4.38;1.00;;;;;;;17.02;70.16;100771.13;5017551;28;20982;-76
2022/11/01 10:59:32;;;;;;;4.20;1.27;;;;;;;16.91;69.39;100763.22;5010799;28;20844;-76
2022/11/01 11:01:59;;;;;;;5.90;1.02;;;;;;;16.81;69.17;100779.66;5007053;28;22199;-76
2022/11/01 11:04:25;;;;;;;2.30;0.70;;;;;;;16.76;69.85;100775.03;5010236;28;20395;-76
2022/11/01 11:06:51;;;;;;;5.43;1.17;;;;;;;16.75;70.05;100772.56;5017405;28;20407;-76
2022/11/01 11:09:26;;;;;;;4.63;0.98;;;;;;;16.83;70.32;100774.72;5017039;28;20423;-77
2022/11/01 11:11:56;;;;;;;4.70;0.70;;;;;;;16.88;70.17;100785.69;5019827;28;20903;-76
2022/11/01 11:14:23;;;;;;;2.38;0.80;;;;;;;17.00;70.58;100786.19;5013450;28;20412;-76
2022/11/01 11:16:55;;;;;;;5.65;0.80;;;;;;;17.04;69.79;100784.53;5022098;28;20410;-76
2022/11/01 11:19:22;;;;;;;3.42;1.20;;;;;;;17.03;69.36;100783.69;5015359;28;20482;-76
2022/11/01 11:21:50;;;;;;;3.20;1.20;;;;;;;17.04;69.43;100781.78;5015320;28;20515;-76
2022/11/01 11:24:18;;;;;;;2.73;0.83;;;;;;;17.00;68.91;100787.00;5014224;28;20446;-77
2022/11/01 11:26:47;;;;;;;5.90;0.97;;;;;;;17.06;67.84;100785.06;5025271;28;20505;-76
2022/11/01 11:29:33;;;;;;;3.40;0.77;;;;;;;17.02;67.45;100775.78;5012184;28;20966;-76
2022/11/01 11:31:59;;;;;;;3.47;0.70;;;;;;;16.99;67.15;100779.88;4997103;28;20471;-76
2022/11/01 11:34:31;;;;;;;4.20;0.98;;;;;;;17.01;67.21;100785.09;5000266;28;20748;-76